Time;durP1;ratioP1;P1;durP2;ratioP2;P2;SDS_P1;SDS_P2;PMS_P1;PMS_P2;Temp;Humidity;BMP_temperature;BMP_pressure;BME280_temperature;BME280_humidity;BME280_pressure;Samples;Min_cycle;Max_cycle;Signal;HPM_P1;HPM_P2
2022/11/27 00:01:14;;;;;;;15.50;5.88;;;7.30;82.50;;;;;;4995559;28;20038;-80
2022/11/27 00:03:41;;;;;;;15.35;5.28;;;7.30;82.60;;;;;;4989769;28;20117;-79
2022/11/27 00:06:10;;;;;;;20.52;6.70;;;7.30;82.60;;;;;;4995410;28;20065;-79
2022/11/27 00:08:36;;;;;;;14.25;6.03;;;7.30;82.60;;;;;;4980585;28;20493;-79
2022/11/27 00:11:07;;;;;;;15.45;5.70;;;7.20;82.50;;;;;;4966602;28;20150;-80
2022/11/27 00:13:33;;;;;;;16.30;5.88;;;7.30;82.60;;;;;;4976082;28;20037;-79
2022/11/27 00:15:58;;;;;;;15.00;5.95;;;7.20;82.60;;;;;;5011025;28;20116;-71
2022/11/27 00:18:24;;;;;;;15.80;5.22;;;7.20;82.60;;;;;;4981832;28;20042;-71
2022/11/27 00:20:49;;;;;;;16.35;5.88;;;7.20;82.60;;;;;;5008787;28;20486;-71
2022/11/27 00:23:15;;;;;;;19.13;5.82;;;7.20;82.60;;;;;;5000162;28;20455;-71
2022/11/27 00:25:51;;;;;;;13.27;5.40;;;7.20;82.60;;;;;;4996947;28;20389;-74
2022/11/27 00:28:17;;;;;;;18.63;6.00;;;7.20;82.60;;;;;;4997721;28;20038;-71
2022/11/27 00:30:43;;;;;;;17.27;5.97;;;7.20;82.50;;;;;;4982456;28;20073;-71
2022/11/27 00:33:09;;;;;;;17.77;6.28;;;7.20;82.50;;;;;;5008307;28;20069;-73
2022/11/27 00:35:34;;;;;;;17.92;6.25;;;7.20;82.40;;;;;;5001279;28;20100;-71
2022/11/27 00:38:00;;;;;;;16.42;6.00;;;7.20;82.30;;;;;;4997742;28;20046;-71
2022/11/27 00:40:26;;;;;;;15.75;5.72;;;7.10;82.20;;;;;;4978111;28;20039;-69
2022/11/27 00:42:51;;;;;;;14.43;6.45;;;7.10;82.20;;;;;;4965509;28;20054;-69
2022/11/27 00:45:17;;;;;;;15.57;6.20;;;7.10;82.20;;;;;;5015631;28;20099;-69
2022/11/27 00:47:43;;;;;;;17.02;6.78;;;7.10;82.00;;;;;;4994879;28;20045;-68
2022/11/27 00:50:08;;;;;;;12.63;6.13;;;7.10;82.00;;;;;;4981519;28;20536;-69
2022/11/27 00:52:34;;;;;;;16.67;6.60;;;7.10;82.00;;;;;;4965395;28;20073;-71
2022/11/27 00:55:00;;;;;;;20.80;6.80;;;7.00;82.00;;;;;;4997697;28;20050;-71
2022/11/27 00:57:25;;;;;;;17.63;6.20;;;7.10;81.90;;;;;;4998709;28;20045;-71
2022/11/27 00:59:51;;;;;;;16.83;6.55;;;7.00;81.80;;;;;;5017056;28;20052;-71
2022/11/27 01:02:17;;;;;;;13.38;6.38;;;7.00;81.80;;;;;;4999759;28;20049;-71
2022/11/27 01:04:47;;;;;;;18.55;5.57;;;6.90;81.80;;;;;;4997197;28;20385;-71
2022/11/27 01:07:12;;;;;;;16.98;5.90;;;7.00;81.80;;;;;;4997336;28;20096;-71
2022/11/27 01:09:38;;;;;;;14.25;5.90;;;7.00;81.80;;;;;;4998867;28;20412;-71
2022/11/27 01:12:04;;;;;;;16.67;6.15;;;6.90;81.70;;;;;;5000324;28;20045;-71
2022/11/27 01:14:30;;;;;;;13.52;6.22;;;7.00;81.70;;;;;;4998311;28;20168;-71
2022/11/27 01:16:56;;;;;;;18.45;5.97;;;6.90;81.50;;;;;;5016895;28;20128;-71
2022/11/27 01:19:21;;;;;;;12.70;6.32;;;6.90;81.50;;;;;;5001627;28;20668;-71
2022/11/27 01:21:47;;;;;;;11.95;6.10;;;6.90;81.50;;;;;;4977346;28;20124;-71
2022/11/27 01:24:14;;;;;;;14.27;6.18;;;6.90;81.60;;;;;;4979981;28;20050;-71
2022/11/27 01:26:41;;;;;;;16.15;5.57;;;6.90;81.60;;;;;;4996844;28;20073;-71
2022/11/27 01:29:07;;;;;;;15.20;5.90;;;6.80;81.50;;;;;;5010267;28;20045;-71
2022/11/27 01:31:33;;;;;;;11.05;6.18;;;6.80;81.40;;;;;;5004282;28;20050;-71
2022/11/27 01:34:05;;;;;;;13.27;5.85;;;6.80;81.40;;;;;;4980838;28;20084;-71
2022/11/27 01:36:31;;;;;;;15.75;6.45;;;6.80;81.40;;;;;;4997924;28;20046;-71
2022/11/27 01:38:57;;;;;;;12.40;5.80;;;6.70;81.40;;;;;;5008498;28;20037;-71
2022/11/27 01:41:26;;;;;;;17.05;5.88;;;6.80;81.40;;;;;;4989206;28;20473;-71
2022/11/27 01:44:23;;;;;;;20.50;6.53;;;6.70;81.40;;;;;;4996498;28;20460;-71
2022/11/27 01:47:06;;;;;;;14.93;5.70;;;6.70;81.30;;;;;;4981142;28;20049;-71
2022/11/27 01:49:41;;;;;;;14.63;6.15;;;6.70;81.40;;;;;;5012844;28;20046;-71
2022/11/27 01:52:13;;;;;;;16.90;7.25;;;6.70;81.40;;;;;;5014483;28;20069;-71
2022/11/27 01:54:56;;;;;;;16.85;6.28;;;6.70;81.40;;;;;;5005565;28;20056;-71
2022/11/27 01:57:34;;;;;;;16.23;6.25;;;6.70;81.30;;;;;;4996410;28;20096;-71
2022/11/27 02:00:01;;;;;;;15.75;6.30;;;6.60;81.20;;;;;;4977465;28;20042;-71
2022/11/27 02:02:28;;;;;;;13.90;5.88;;;6.60;81.20;;;;;;4996330;28;20088;-71
2022/11/27 02:04:54;;;;;;;16.23;6.45;;;6.60;81.50;;;;;;4995667;28;20133;-71
2022/11/27 02:07:20;;;;;;;15.13;6.55;;;6.60;81.10;;;;;;4980885;28;20042;-71
2022/11/27 02:09:46;;;;;;;17.65;6.40;;;6.50;81.10;;;;;;4999411;28;20100;-68
2022/11/27 02:12:25;;;;;;;19.70;6.90;;;6.50;81.10;;;;;;4979772;28;20045;-71
2022/11/27 02:15:07;;;;;;;17.90;7.55;;;6.50;81.20;;;;;;4996383;28;20389;-71
2022/11/27 02:18:00;;;;;;;16.88;6.43;;;6.50;81.20;;;;;;4999063;28;20124;-71
2022/11/27 02:20:37;;;;;;;16.42;6.28;;;6.40;81.20;;;;;;4999212;28;20124;-71
2022/11/27 02:23:18;;;;;;;17.85;7.05;;;6.40;81.20;;;;;;4995958;28;20393;-71
2022/11/27 02:26:02;;;;;;;16.70;6.70;;;6.40;81.30;;;;;;5026877;28;20048;-71
2022/11/27 02:29:02;;;;;;;14.77;7.55;;;6.30;81.30;;;;;;5000957;28;20065;-72
2022/11/27 02:31:46;;;;;;;12.57;6.43;;;6.30;81.30;;;;;;4981430;28;20044;-71
2022/11/27 02:34:42;;;;;;;14.63;6.28;;;6.30;81.30;;;;;;4995659;28;20053;-71
2022/11/27 02:37:32;;;;;;;15.57;6.78;;;6.30;81.40;;;;;;4997188;28;20125;-71
2022/11/27 02:40:00;;;;;;;16.58;7.65;;;6.30;81.40;;;;;;4996798;28;20453;-71
2022/11/27 02:42:30;;;;;;;14.40;7.25;;;6.30;81.40;;;;;;4979541;28;20424;-71
2022/11/27 02:45:03;;;;;;;18.30;7.40;;;6.20;81.40;;;;;;4995625;28;20053;-71
2022/11/27 02:47:29;;;;;;;19.30;7.85;;;6.20;81.50;;;;;;5005039;28;20489;-71
2022/11/27 02:49:56;;;;;;;12.40;6.35;;;6.20;81.50;;;;;;4999240;28;20088;-71
2022/11/27 02:52:24;;;;;;;12.30;6.70;;;6.30;81.50;;;;;;4995332;28;20053;-71
2022/11/27 02:54:53;;;;;;;17.58;6.63;;;6.30;81.40;;;;;;4995590;28;20042;-71
2022/11/27 02:57:19;;;;;;;15.70;6.70;;;6.20;81.30;;;;;;5004849;28;20393;-71
2022/11/27 02:59:45;;;;;;;19.42;8.02;;;6.30;81.20;;;;;;4982277;28;20079;-71
2022/11/27 03:02:20;;;;;;;17.60;6.95;;;6.20;81.20;;;;;;5003414;28;20042;-71
2022/11/27 03:04:51;;;;;;;15.00;6.65;;;6.20;81.20;;;;;;4995467;28;20389;-71
2022/11/27 03:07:29;;;;;;;20.73;7.55;;;6.20;81.10;;;;;;4995077;28;20125;-71
2022/11/27 03:10:00;;;;;;;16.30;7.13;;;6.10;81.10;;;;;;4975924;28;20050;-71
2022/11/27 03:12:26;;;;;;;15.38;7.13;;;6.10;81.10;;;;;;4992450;28;20064;-71
2022/11/27 03:14:52;;;;;;;15.65;6.97;;;6.10;81.10;;;;;;4979259;28;20127;-71
2022/11/27 03:17:34;;;;;;;20.40;7.65;;;6.10;81.10;;;;;;5002792;28;20051;-71
2022/11/27 03:20:09;;;;;;;17.83;7.95;;;6.10;81.20;;;;;;5015058;28;20511;-71
2022/11/27 03:22:35;;;;;;;17.20;6.47;;;6.10;81.10;;;;;;5000632;28;20141;-71
2022/11/27 03:25:01;;;;;;;15.80;6.93;;;6.10;81.10;;;;;;4967014;28;20151;-71
2022/11/27 03:27:34;;;;;;;14.38;6.68;;;6.10;81.10;;;;;;5005557;28;20034;-71
2022/11/27 03:30:02;;;;;;;15.25;6.53;;;6.10;81.20;;;;;;4995166;28;20038;-71
2022/11/27 03:32:29;;;;;;;14.48;6.07;;;6.10;81.20;;;;;;4978842;28;20037;-71
2022/11/27 03:34:55;;;;;;;15.65;7.22;;;6.10;81.20;;;;;;4978836;28;20053;-71
2022/11/27 03:37:22;;;;;;;21.00;6.80;;;6.10;81.70;;;;;;5002910;28;20037;-71
2022/11/27 03:39:48;;;;;;;14.98;6.60;;;6.10;81.30;;;;;;4988847;28;20836;-71
2022/11/27 03:42:27;;;;;;;15.43;6.35;;;6.10;81.30;;;;;;4994939;28;20137;-71
2022/11/27 03:45:15;;;;;;;19.52;7.68;;;6.10;81.30;;;;;;4998865;28;20038;-71
2022/11/27 03:47:57;;;;;;;18.10;6.45;;;6.10;81.30;;;;;;4996613;28;20057;-71
2022/11/27 03:50:29;;;;;;;19.75;7.07;;;6.10;81.30;;;;;;4982124;28;20045;-71
2022/11/27 03:53:16;;;;;;;17.10;7.03;;;6.10;81.10;;;;;;5001943;28;20045;-71
2022/11/27 03:56:05;;;;;;;15.00;6.22;;;6.20;81.10;;;;;;5017707;28;20090;-71
2022/11/27 03:58:43;;;;;;;15.48;6.20;;;6.20;81.10;;;;;;4979206;28;20042;-71
2022/11/27 04:01:12;;;;;;;13.38;6.05;;;6.20;81.10;;;;;;4971322;28;20037;-71
2022/11/27 04:03:38;;;;;;;13.60;5.93;;;6.20;81.10;;;;;;4981007;28;20569;-71
2022/11/27 04:06:04;;;;;;;15.80;5.97;;;6.20;81.10;;;;;;4998513;28;20116;-71
2022/11/27 04:08:30;;;;;;;15.20;6.85;;;6.20;81.10;;;;;;5017700;28;20132;-71
2022/11/27 04:10:55;;;;;;;15.23;6.15;;;6.20;81.00;;;;;;4956695;28;20045;-71
2022/11/27 04:13:21;;;;;;;17.40;6.38;;;6.20;80.90;;;;;;4998428;28;20042;-71
2022/11/27 04:15:47;;;;;;;16.98;6.70;;;6.20;81.20;;;;;;4998252;28;20508;-71
2022/11/27 04:18:12;;;;;;;12.23;6.07;;;6.20;80.90;;;;;;4988032;28;20056;-71
2022/11/27 04:20:38;;;;;;;11.85;5.75;;;6.20;80.90;;;;;;5002839;28;20064;-71
2022/11/27 04:23:04;;;;;;;13.70;6.88;;;6.20;80.90;;;;;;4998262;28;20433;-71
2022/11/27 04:25:30;;;;;;;16.27;6.10;;;6.30;81.00;;;;;;4998141;28;20041;-71
2022/11/27 04:27:56;;;;;;;15.30;5.70;;;6.20;80.90;;;;;;4998900;28;20048;-71
2022/11/27 04:30:21;;;;;;;11.55;5.55;;;6.30;81.00;;;;;;4997961;28;20038;-71
2022/11/27 04:32:47;;;;;;;14.60;5.75;;;6.40;80.90;;;;;;4997949;28;20396;-71
2022/11/27 04:35:13;;;;;;;13.50;5.85;;;6.30;80.80;;;;;;5005455;28;20041;-71
2022/11/27 04:37:39;;;;;;;13.32;5.35;;;6.30;80.60;;;;;;5007594;28;20065;-71
2022/11/27 04:40:05;;;;;;;13.75;5.65;;;6.30;80.60;;;;;;4997894;28;20044;-71
2022/11/27 04:42:31;;;;;;;13.75;5.97;;;6.30;80.50;;;;;;4997616;28;20049;-71
2022/11/27 04:44:56;;;;;;;13.30;5.88;;;6.40;80.50;;;;;;4997698;28;20073;-71
2022/11/27 04:47:22;;;;;;;12.90;5.53;;;6.40;80.50;;;;;;5004960;28;20025;-71
2022/11/27 04:49:48;;;;;;;15.77;5.10;;;6.40;80.50;;;;;;5002986;28;20038;-71
2022/11/27 04:52:13;;;;;;;15.00;5.60;;;6.40;80.30;;;;;;4997296;28;20113;-71
2022/11/27 04:54:39;;;;;;;11.18;5.03;;;6.40;80.20;;;;;;4997143;28;20095;-71
2022/11/27 04:57:05;;;;;;;10.88;5.18;;;6.40;80.10;;;;;;4985149;28;20052;-71
2022/11/27 04:59:31;;;;;;;10.68;4.90;;;6.40;80.10;;;;;;5017302;28;20048;-71
2022/11/27 05:01:56;;;;;;;12.95;4.68;;;6.40;79.90;;;;;;4984665;28;20041;-71
2022/11/27 05:04:22;;;;;;;11.38;4.68;;;6.50;80.00;;;;;;4997263;28;20042;-71
2022/11/27 05:06:48;;;;;;;16.80;5.13;;;6.50;79.80;;;;;;4996766;28;20037;-71
2022/11/27 05:09:16;;;;;;;11.35;4.70;;;6.50;79.60;;;;;;4997186;28;20401;-71
2022/11/27 05:11:43;;;;;;;16.55;5.07;;;6.50;79.30;;;;;;4996903;28;20038;-71
2022/11/27 05:14:15;;;;;;;12.65;5.22;;;6.50;79.20;;;;;;5002159;28;20041;-71
2022/11/27 05:16:42;;;;;;;10.60;4.28;;;6.50;79.10;;;;;;5016506;28;20111;-68
2022/11/27 05:19:09;;;;;;;9.80;4.82;;;6.50;79.00;;;;;;4988015;28;20038;-70
2022/11/27 05:21:36;;;;;;;9.75;4.43;;;6.60;78.90;;;;;;4996868;28;20037;-70
2022/11/27 05:24:01;;;;;;;16.17;4.70;;;6.50;78.70;;;;;;4996822;28;20056;-70
2022/11/27 05:26:27;;;;;;;11.60;4.60;;;6.60;78.70;;;;;;4980705;28;20046;-70
2022/11/27 05:28:53;;;;;;;13.05;5.65;;;6.60;78.60;;;;;;5008925;28;20042;-70
2022/11/27 05:31:18;;;;;;;10.70;5.05;;;6.60;78.40;;;;;;4996749;28;20061;-70
2022/11/27 05:33:44;;;;;;;13.93;4.95;;;6.60;78.40;;;;;;4997111;28;20038;-70
2022/11/27 05:36:10;;;;;;;12.98;4.68;;;6.60;78.40;;;;;;4996801;28;20458;-70
2022/11/27 05:38:35;;;;;;;14.70;4.88;;;6.60;78.40;;;;;;4990494;28;20476;-70
2022/11/27 05:41:02;;;;;;;13.18;4.78;;;6.60;78.70;;;;;;4996304;28;20378;-70
2022/11/27 05:43:28;;;;;;;15.85;4.90;;;6.60;78.30;;;;;;4991281;28;20493;-70
2022/11/27 05:45:53;;;;;;;11.48;4.82;;;6.60;78.20;;;;;;5010627;28;20055;-70
2022/11/27 05:48:19;;;;;;;9.00;4.38;;;6.70;78.20;;;;;;5003454;28;20049;-70
2022/11/27 05:50:45;;;;;;;9.98;4.03;;;6.60;78.10;;;;;;4996336;28;20049;-70
2022/11/27 05:53:11;;;;;;;10.40;4.28;;;6.60;78.10;;;;;;4996469;28;20042;-70
2022/11/27 05:55:37;;;;;;;13.05;5.15;;;6.60;77.90;;;;;;4996403;28;20050;-70
2022/11/27 05:58:02;;;;;;;12.35;4.40;;;6.60;77.90;;;;;;4996288;28;20050;-70
2022/11/27 06:00:28;;;;;;;10.43;4.57;;;6.70;78.00;;;;;;4995976;28;20049;-70
2022/11/27 06:02:54;;;;;;;13.85;4.72;;;6.70;77.90;;;;;;4980024;28;20048;-70
2022/11/27 06:05:20;;;;;;;12.82;4.10;;;6.70;77.90;;;;;;4995515;28;20390;-72
2022/11/27 06:07:46;;;;;;;9.70;4.80;;;6.60;77.80;;;;;;5003574;28;20054;-71
2022/11/27 06:10:11;;;;;;;10.55;4.20;;;6.70;77.90;;;;;;4995887;28;20045;-70
2022/11/27 06:12:37;;;;;;;11.50;4.13;;;6.70;77.80;;;;;;5026090;28;20561;-70
2022/11/27 06:15:03;;;;;;;11.63;4.57;;;6.70;77.70;;;;;;5015919;28;20049;-70
2022/11/27 06:17:29;;;;;;;12.25;4.50;;;6.70;77.70;;;;;;4993506;28;20041;-70
2022/11/27 06:19:54;;;;;;;11.98;4.80;;;6.70;77.60;;;;;;4996064;28;20128;-70
2022/11/27 06:22:20;;;;;;;8.95;4.10;;;6.70;77.70;;;;;;4980754;28;20046;-70
2022/11/27 06:24:46;;;;;;;13.63;4.38;;;6.70;77.60;;;;;;4995927;28;20532;-70
2022/11/27 06:27:12;;;;;;;11.80;4.63;;;6.70;77.50;;;;;;4997864;28;20049;-70
2022/11/27 06:29:37;;;;;;;11.35;4.72;;;6.70;77.60;;;;;;5015538;28;20084;-70
2022/11/27 06:32:04;;;;;;;9.40;4.40;;;6.70;77.60;;;;;;5000587;28;20370;-70
2022/11/27 06:34:30;;;;;;;9.90;4.25;;;6.70;77.60;;;;;;4979373;28;20077;-70
2022/11/27 06:36:55;;;;;;;12.52;5.03;;;6.70;77.40;;;;;;4983752;28;20398;-70
2022/11/27 06:39:21;;;;;;;10.57;4.22;;;6.80;77.30;;;;;;5009020;28;20536;-70
2022/11/27 06:41:46;;;;;;;9.93;3.92;;;6.70;77.20;;;;;;4995464;28;20538;-70
2022/11/27 06:44:12;;;;;;;10.48;3.78;;;6.70;77.30;;;;;;4995674;28;20041;-70
2022/11/27 06:46:38;;;;;;;13.55;5.30;;;6.80;77.30;;;;;;4979749;28;20046;-70
2022/11/27 06:49:04;;;;;;;9.88;4.10;;;6.80;77.30;;;;;;5000524;28;20392;-70
2022/11/27 06:51:31;;;;;;;12.95;4.40;;;6.80;77.70;;;;;;4995291;28;20037;-70
2022/11/27 06:53:58;;;;;;;9.98;4.07;;;6.80;77.30;;;;;;4995770;28;20493;-70
2022/11/27 06:56:26;;;;;;;10.10;4.50;;;6.80;77.30;;;;;;4995735;28;20536;-70
2022/11/27 06:58:58;;;;;;;12.32;4.80;;;6.80;77.20;;;;;;5000494;28;20404;-69
2022/11/27 07:01:25;;;;;;;10.20;4.63;;;6.80;77.20;;;;;;4995332;28;20073;-70
2022/11/27 07:03:50;;;;;;;8.18;4.20;;;6.80;77.20;;;;;;4998152;28;20388;-70
2022/11/27 07:06:22;;;;;;;9.88;4.45;;;6.80;77.60;;;;;;4998450;28;20124;-70
2022/11/27 07:08:48;;;;;;;9.35;4.68;;;6.80;77.20;;;;;;5001163;28;20125;-70
2022/11/27 07:11:20;;;;;;;13.07;4.93;;;6.80;77.20;;;;;;4995073;28;20049;-70
2022/11/27 07:13:47;;;;;;;14.40;5.18;;;6.80;76.90;;;;;;4995410;28;20042;-70
2022/11/27 07:16:13;;;;;;;10.57;4.47;;;6.80;76.90;;;;;;5008189;28;20041;-70
2022/11/27 07:18:41;;;;;;;8.50;3.90;;;6.80;77.00;;;;;;5006535;28;20085;-70
2022/11/27 07:21:07;;;;;;;8.98;4.25;;;6.80;77.00;;;;;;4999014;28;20045;-69
2022/11/27 07:23:34;;;;;;;11.82;4.30;;;6.80;76.90;;;;;;4982785;28;20052;-69
2022/11/27 07:26:05;;;;;;;10.77;4.85;;;6.90;77.00;;;;;;4998887;28;20046;-70
2022/11/27 07:28:30;;;;;;;12.25;4.57;;;6.90;76.90;;;;;;5008935;28;20048;-70
2022/11/27 07:30:57;;;;;;;11.70;4.82;;;6.90;76.90;;;;;;4999092;28;20033;-69
2022/11/27 07:33:24;;;;;;;10.80;4.72;;;6.90;76.80;;;;;;4999035;28;20038;-70
2022/11/27 07:35:56;;;;;;;10.95;5.85;;;6.80;76.70;;;;;;4983028;28;20436;-70
2022/11/27 07:38:22;;;;;;;16.92;5.97;;;6.90;76.70;;;;;;5008066;28;20041;-70
2022/11/27 07:40:47;;;;;;;10.07;4.82;;;6.90;76.60;;;;;;4988334;28;20038;-70
2022/11/27 07:43:13;;;;;;;12.13;5.53;;;6.90;77.10;;;;;;4993042;28;20049;-70
2022/11/27 07:45:39;;;;;;;12.20;5.35;;;6.80;76.70;;;;;;4998800;28;20054;-70
2022/11/27 07:48:05;;;;;;;15.23;5.55;;;6.90;76.80;;;;;;5001753;28;20038;-70
2022/11/27 07:50:30;;;;;;;11.65;5.03;;;6.90;76.70;;;;;;4998309;28;20072;-70
2022/11/27 07:52:57;;;;;;;6.85;4.70;;;6.90;76.70;;;;;;4982383;28;20077;-70
2022/11/27 07:55:22;;;;;;;12.07;5.15;;;6.90;76.70;;;;;;4998764;28;20053;-70
2022/11/27 07:57:48;;;;;;;13.77;5.65;;;6.90;76.70;;;;;;4999418;28;20092;-70
2022/11/27 08:00:14;;;;;;;16.17;5.40;;;6.90;76.60;;;;;;4997145;28;20038;-70
2022/11/27 08:02:40;;;;;;;10.65;5.22;;;6.90;76.60;;;;;;4996707;28;20099;-70
2022/11/27 08:05:06;;;;;;;10.77;5.32;;;6.90;76.60;;;;;;4998191;28;20046;-71
2022/11/27 08:07:32;;;;;;;17.00;5.75;;;6.90;76.50;;;;;;4987448;28;20053;-71
2022/11/27 08:09:57;;;;;;;12.05;5.38;;;6.90;76.40;;;;;;5007181;28;20046;-69
2022/11/27 08:12:24;;;;;;;13.40;6.05;;;7.00;76.50;;;;;;4998449;28;20041;-70
2022/11/27 08:14:50;;;;;;;14.88;6.55;;;6.90;76.50;;;;;;4990439;28;20049;-70
2022/11/27 08:17:16;;;;;;;11.27;5.50;;;6.90;76.60;;;;;;5014659;28;20042;-70
2022/11/27 08:19:41;;;;;;;12.38;5.57;;;7.00;76.60;;;;;;4997302;28;20052;-70
2022/11/27 08:22:14;;;;;;;14.88;5.82;;;6.90;76.50;;;;;;4982045;28;20463;-71
2022/11/27 08:24:43;;;;;;;16.02;5.45;;;7.00;76.60;;;;;;4999321;28;20440;-71
2022/11/27 08:27:09;;;;;;;10.65;5.30;;;7.00;76.70;;;;;;4998158;28;20084;-71
2022/11/27 08:29:36;;;;;;;13.07;6.15;;;7.00;76.60;;;;;;4987624;28;20037;-71
2022/11/27 08:32:01;;;;;;;12.23;5.38;;;7.00;76.60;;;;;;4982651;28;20033;-71
2022/11/27 08:34:27;;;;;;;13.73;5.07;;;7.00;76.60;;;;;;4984414;28;20038;-70
2022/11/27 08:36:52;;;;;;;15.38;6.07;;;7.00;76.40;;;;;;5002065;28;20077;-70
2022/11/27 08:39:18;;;;;;;13.85;6.30;;;7.10;76.40;;;;;;4946769;28;20058;-71
2022/11/27 08:41:44;;;;;;;10.10;5.18;;;7.00;76.40;;;;;;4962557;28;20053;-71
2022/11/27 08:44:10;;;;;;;9.07;5.30;;;7.10;76.30;;;;;;4962138;28;20405;-70
2022/11/27 08:46:35;;;;;;;11.70;5.35;;;7.10;76.30;;;;;;4978496;28;20058;-71
2022/11/27 08:49:01;;;;;;;14.25;6.10;;;7.10;76.50;;;;;;4999294;28;20042;-71
2022/11/27 08:51:27;;;;;;;12.43;5.93;;;7.10;76.30;;;;;;4989459;28;20040;-71
2022/11/27 08:53:53;;;;;;;13.45;5.65;;;7.10;76.50;;;;;;5015924;28;20046;-71
2022/11/27 08:56:21;;;;;;;13.43;5.55;;;7.10;76.40;;;;;;4997606;28;20069;-70
2022/11/27 08:58:47;;;;;;;12.75;6.07;;;7.10;76.40;;;;;;5010216;28;20176;-70
2022/11/27 09:01:20;;;;;;;13.10;5.80;;;7.20;76.50;;;;;;5000988;28;20045;-70
2022/11/27 09:03:46;;;;;;;10.10;5.60;;;7.20;76.50;;;;;;4981086;28;20037;-71
2022/11/27 09:06:15;;;;;;;13.10;5.40;;;7.20;76.60;;;;;;4998129;28;20049;-70
2022/11/27 09:08:42;;;;;;;12.85;5.75;;;7.20;76.70;;;;;;4996768;28;20065;-71
2022/11/27 09:11:09;;;;;;;11.77;5.32;;;7.20;76.80;;;;;;4982983;28;20124;-71
2022/11/27 09:13:35;;;;;;;14.55;6.75;;;7.20;76.90;;;;;;4999364;28;20045;-71
2022/11/27 09:16:05;;;;;;;12.35;5.00;;;7.20;77.00;;;;;;5011243;28;20045;-71
2022/11/27 09:18:31;;;;;;;10.40;5.90;;;7.20;77.00;;;;;;4980452;28;20048;-71
2022/11/27 09:21:02;;;;;;;13.10;6.47;;;7.20;77.20;;;;;;4997039;28;20038;-71
2022/11/27 09:23:29;;;;;;;14.40;6.30;;;7.20;77.30;;;;;;4996300;28;20050;-71
2022/11/27 09:26:05;;;;;;;13.00;6.13;;;7.20;77.50;;;;;;5001263;28;20405;-71
2022/11/27 09:28:35;;;;;;;11.80;6.35;;;7.20;77.60;;;;;;4991195;28;20486;-71
2022/11/27 09:31:02;;;;;;;13.32;5.95;;;7.20;77.80;;;;;;4975996;28;20064;-71
2022/11/27 09:33:30;;;;;;;13.88;6.10;;;7.20;77.80;;;;;;4991501;28;20061;-71
2022/11/27 09:35:56;;;;;;;14.18;7.40;;;7.20;77.90;;;;;;4974751;28;20038;-71
2022/11/27 09:38:22;;;;;;;17.25;7.50;;;7.20;78.10;;;;;;4959236;28;20092;-71
2022/11/27 09:40:50;;;;;;;13.07;6.82;;;7.20;78.20;;;;;;4974978;28;20046;-71
2022/11/27 09:43:21;;;;;;;12.02;6.40;;;7.20;78.40;;;;;;4991611;28;20042;-72
2022/11/27 09:45:56;;;;;;;15.25;7.10;;;7.20;78.60;;;;;;4990890;28;20080;-72
2022/11/27 09:48:33;;;;;;;16.50;7.07;;;7.20;78.70;;;;;;4974959;28;20038;-72
2022/11/27 09:51:04;;;;;;;13.30;7.32;;;7.20;78.80;;;;;;4991024;28;20088;-72
2022/11/27 09:53:38;;;;;;;15.02;7.13;;;7.20;78.90;;;;;;4974598;28;20041;-72
2022/11/27 09:56:08;;;;;;;12.27;7.00;;;7.20;79.00;;;;;;4974708;28;20049;-71
2022/11/27 09:58:56;;;;;;;15.55;7.43;;;7.20;79.10;;;;;;4991551;28;20046;-72
2022/11/27 10:01:26;;;;;;;16.58;7.60;;;7.20;79.30;;;;;;4991140;28;20046;-72
2022/11/27 10:03:52;;;;;;;15.43;6.95;;;7.20;79.40;;;;;;4991016;28;20037;-71
2022/11/27 10:06:33;;;;;;;18.02;8.18;;;7.20;79.50;;;;;;4990686;28;20049;-71
2022/11/27 10:09:08;;;;;;;14.48;7.50;;;7.10;79.50;;;;;;4990845;28;20054;-71
2022/11/27 10:11:52;;;;;;;;;;;7.10;79.60;;;;;;4990994;28;21661;-71
2022/11/27 10:14:24;;;;;;;14.02;7.13;;;7.10;79.50;;;;;;4990925;28;19936;-71
2022/11/27 10:16:51;;;;;;;16.02;7.65;;;7.10;79.80;;;;;;4990705;28;20042;-71
2022/11/27 10:19:36;;;;;;;15.98;7.85;;;7.10;79.90;;;;;;4990941;28;20653;-72
2022/11/27 10:22:50;;;;;;;15.73;6.95;;;7.10;80.00;;;;;;5006616;28;20037;-71
2022/11/27 10:25:24;;;;;;;14.65;7.97;;;7.10;80.10;;;;;;4908105;29;20520;-72
2022/11/27 10:28:10;;;;;;;16.17;8.43;;;7.10;80.20;;;;;;4893098;29;20538;-71
2022/11/27 10:30:55;;;;;;;14.30;8.02;;;7.10;80.20;;;;;;4955949;28;20050;-71
2022/11/27 10:33:41;;;;;;;15.20;8.25;;;7.10;80.40;;;;;;4989894;28;20129;-71
2022/11/27 10:36:15;;;;;;;19.35;9.05;;;7.10;80.40;;;;;;4973722;28;20055;-71
2022/11/27 10:38:42;;;;;;;;;;;7.10;80.50;;;;;;4990666;28;20378;-71
2022/11/27 10:41:20;;;;;;;18.00;8.35;;;7.00;80.50;;;;;;4957896;28;19917;-71
2022/11/27 10:43:51;;;;;;;13.27;8.13;;;7.00;80.60;;;;;;4990241;28;20038;-71
2022/11/27 10:46:30;;;;;;;20.80;8.98;;;7.00;80.70;;;;;;4990302;28;20038;-70
2022/11/27 10:48:57;;;;;;;15.07;7.80;;;7.00;80.70;;;;;;4990409;28;20046;-71
2022/11/27 10:51:35;;;;;;;15.27;8.20;;;7.00;80.70;;;;;;4990525;28;20038;-71
2022/11/27 10:54:04;;;;;;;21.40;8.93;;;7.00;80.70;;;;;;4989812;28;20601;-71
2022/11/27 10:57:05;;;;;;;16.42;8.25;;;7.00;80.80;;;;;;4989590;28;20057;-71
2022/11/27 10:59:42;;;;;;;17.52;8.75;;;7.00;80.90;;;;;;4975362;28;20053;-71
2022/11/27 11:02:45;;;;;;;18.48;8.35;;;7.10;81.00;;;;;;4989202;28;20497;-71
2022/11/27 11:05:25;;;;;;;16.10;8.60;;;7.00;80.90;;;;;;4989093;28;20046;-71
2022/11/27 11:08:06;;;;;;;13.60;8.00;;;7.00;81.00;;;;;;4989490;28;20397;-71
2022/11/27 11:10:42;;;;;;;19.15;9.05;;;7.00;80.90;;;;;;4989171;28;20508;-71
2022/11/27 11:13:10;;;;;;;16.50;7.43;;;7.00;80.90;;;;;;5005830;28;20745;-71
2022/11/27 11:16:03;;;;;;;14.88;8.55;;;7.10;80.90;;;;;;4989124;28;20046;-71
2022/11/27 11:18:41;;;;;;;16.55;8.18;;;7.10;81.00;;;;;;4989234;28;20085;-72
2022/11/27 11:21:34;;;;;;;13.32;7.32;;;7.10;81.10;;;;;;4989917;28;20104;-72
2022/11/27 11:24:02;;;;;;;14.60;7.50;;;7.10;81.10;;;;;;4976525;28;20430;-72
2022/11/27 11:26:43;;;;;;;13.48;7.93;;;7.10;81.00;;;;;;4989508;28;20947;-71
2022/11/27 11:29:31;;;;;;;15.73;7.22;;;7.10;81.10;;;;;;4989646;28;20045;-71
2022/11/27 11:32:02;;;;;;;14.07;7.40;;;7.10;81.00;;;;;;4989798;28;20084;-71
2022/11/27 11:34:29;;;;;;;14.40;7.35;;;7.20;81.00;;;;;;4989428;28;20397;-72
2022/11/27 11:37:05;;;;;;;15.70;7.68;;;7.10;80.90;;;;;;4989923;28;21022;-71
2022/11/27 11:39:44;;;;;;;14.80;7.60;;;7.20;81.00;;;;;;4990358;28;20038;-70
2022/11/27 11:42:19;;;;;;;16.33;7.93;;;7.20;80.90;;;;;;4990722;28;20412;-71
2022/11/27 11:44:50;;;;;;;13.73;7.65;;;7.20;80.90;;;;;;4989511;28;20038;-70
2022/11/27 11:47:18;;;;;;;14.60;7.82;;;7.20;80.90;;;;;;4989366;28;20073;-71
2022/11/27 11:49:45;;;;;;;14.30;7.38;;;7.20;80.80;;;;;;4989271;28;20485;-71
2022/11/27 11:52:35;;;;;;;13.80;7.70;;;7.20;80.70;;;;;;4957817;28;20056;-70
2022/11/27 11:55:29;;;;;;;12.75;7.88;;;7.20;80.70;;;;;;4990341;28;20046;-70
2022/11/27 11:58:09;;;;;;;12.98;7.45;;;7.30;80.80;;;;;;4973676;28;20037;-71
2022/11/27 12:00:47;;;;;;;15.25;7.38;;;7.30;80.80;;;;;;4973213;28;20066;-70
2022/11/27 12:03:19;;;;;;;17.17;8.60;;;7.30;80.60;;;;;;4988908;28;20034;-71
2022/11/27 12:06:10;;;;;;;16.48;8.20;;;7.30;80.60;;;;;;4977799;28;20044;-70
2022/11/27 12:09:10;;;;;;;13.95;7.95;;;7.30;80.60;;;;;;4993427;28;20053;-70
2022/11/27 12:12:02;;;;;;;15.68;8.07;;;7.30;80.60;;;;;;4979434;28;20042;-70
2022/11/27 12:15:12;;;;;;;17.60;7.97;;;7.30;80.80;;;;;;4993744;28;20037;-71
2022/11/27 12:17:43;;;;;;;14.70;7.28;;;7.30;80.70;;;;;;4984008;28;20054;-70
2022/11/27 12:20:20;;;;;;;14.10;7.90;;;7.30;80.90;;;;;;4993775;28;20047;-70
2022/11/27 12:22:59;;;;;;;18.23;8.50;;;7.30;80.90;;;;;;4993338;28;20042;-70
2022/11/27 12:25:35;;;;;;;14.23;8.15;;;7.30;80.90;;;;;;4994283;28;20499;-70
2022/11/27 12:28:21;;;;;;;15.35;8.48;;;7.40;81.00;;;;;;4994028;28;20033;-71
2022/11/27 12:30:58;;;;;;;14.18;8.52;;;7.50;81.00;;;;;;4993772;28;20066;-70
2022/11/27 12:33:27;;;;;;;16.15;8.23;;;7.40;81.30;;;;;;4992536;28;20436;-71
2022/11/27 12:36:22;;;;;;;12.63;7.55;;;7.40;81.00;;;;;;4993296;28;20514;-71
2022/11/27 12:39:12;;;;;;;14.18;7.20;;;7.40;81.00;;;;;;4993325;28;20057;-70
2022/11/27 12:41:59;;;;;;;16.35;9.13;;;7.40;81.00;;;;;;4993613;28;20069;-71
2022/11/27 12:44:46;;;;;;;13.43;7.85;;;7.40;80.90;;;;;;4992938;28;20076;-71
2022/11/27 12:47:23;;;;;;;14.35;8.13;;;7.40;81.00;;;;;;4977608;28;20038;-70
2022/11/27 12:49:56;;;;;;;21.13;8.75;;;7.40;81.00;;;;;;4994027;28;20058;-70
2022/11/27 12:52:21;;;;;;;12.88;7.63;;;7.40;81.10;;;;;;5007409;28;20034;-70
2022/11/27 12:55:14;;;;;;;13.52;7.45;;;7.40;81.10;;;;;;4993207;28;21420;-70
2022/11/27 12:57:54;;;;;;;13.95;8.18;;;7.40;81.20;;;;;;4997042;28;20044;-70
2022/11/27 13:00:23;;;;;;;14.23;7.80;;;7.40;81.30;;;;;;4983911;28;20125;-72
2022/11/27 13:02:58;;;;;;;14.18;8.68;;;7.40;81.30;;;;;;5017321;28;20064;-72
2022/11/27 13:05:26;;;;;;;;;;;7.40;81.20;;;;;;5017152;28;20102;-72
2022/11/27 13:08:01;;;;;;;14.90;7.13;;;7.40;81.00;;;;;;4987818;28;19917;-72